createdAt,value
2023-03-12T00:04:37.835Z,87.82
2023-03-12T00:34:41.218Z,87.83
2023-03-12T01:04:44.777Z,87.85
2023-03-12T01:34:48.216Z,88.01
2023-03-12T02:04:51.993Z,88.32
2023-03-12T02:34:55.184Z,88.06
2023-03-12T03:04:59.254Z,87.56
2023-03-12T03:35:02.480Z,87.30
2023-03-12T04:05:06.105Z,87.54
2023-03-12T04:35:09.476Z,87.96
2023-03-12T05:05:12.569Z,87.59
2023-03-12T05:35:15.842Z,88.16
2023-03-12T06:05:19.004Z,87.98
2023-03-12T06:35:22.117Z,87.82
2023-03-12T07:05:29.965Z,86.97
2023-03-12T07:35:34.331Z,85.13
2023-03-12T08:05:39.683Z,84.79
2023-03-12T08:35:43.281Z,81.05
2023-03-12T09:05:47.135Z,81.39
2023-03-12T09:35:50.383Z,76.78
2023-03-12T10:05:54.990Z,77.14
2023-03-12T10:35:58.683Z,73.95
2023-03-12T11:06:03.235Z,70.42
2023-03-12T11:36:06.535Z,70.31
2023-03-12T12:06:10.243Z,68.50
2023-03-12T12:36:13.828Z,68.65
2023-03-12T13:06:17.582Z,66.02
2023-03-12T13:36:21.141Z,64.70
2023-03-12T14:06:25.796Z,63.78
2023-03-12T14:36:29.350Z,63.22
2023-03-12T15:06:32.966Z,62.48
2023-03-12T15:36:36.621Z,66.18
2023-03-12T16:06:40.090Z,66.92
2023-03-12T16:36:42.967Z,68.24
2023-03-12T17:06:47.262Z,69.75
2023-03-12T17:36:50.145Z,70.59
2023-03-12T18:06:55.455Z,70.23
2023-03-12T18:36:58.682Z,68.39
2023-03-12T19:07:03.528Z,68.63
2023-03-12T19:37:06.475Z,69.31
2023-03-12T20:07:11.270Z,68.20
2023-03-12T20:37:14.623Z,71.34
2023-03-12T21:07:18.562Z,73.43
2023-03-12T21:37:21.436Z,77.28
2023-03-12T22:07:25.397Z,78.58
2023-03-12T22:37:28.337Z,80.32
2023-03-12T23:07:31.939Z,81.90
2023-03-12T23:37:34.846Z,82.78
